Western Dawn — WSB9934 — position and weather

sailwx.info

Track history (hours):
 
Tides and Currents Weather Stations Pressure Air Temp Water Temp Dewpoint Dewpoint Depression Visibility Wind Speed Wind Dir Waves Ship Positions

Western Dawn

Owner: OLSEN, THOR A, SEATTLE, WA. More information available from US FCC via Universal Licensing System and Coast Guard Vessel Documentation Center.

Last reported at 2018-Jan-12 01:26 UTC. Time now 2018-Feb-20 19:35 UTC.
Position N 49°15' W 127°07'.
Warning: this ship's position is 39 days out of date.

Length 30 m; draft 4 m.

Type: Fishing. MMSI: 366264360.

Date/timePositionNaut miles runAvg speedWind from/ knotsBaromVisibWave heightAir tempDewpointWater temp
2018-Jan-12 01:26N 49°15' W 127°07'510.9
2018-Jan-12 00:58N 49°13' W 126°60'510.7
2018-Jan-12 00:30N 49°11' W 126°53'510.7
2018-Jan-12 00:00N 49°08' W 126°46'510.6
2018-Jan-11 23:30N 49°06' W 126°38'510.6
2018-Jan-11 23:00N 49°04' W 126°31'510.6
2018-Jan-11 22:30N 49°02' W 126°24'511.2
2018-Jan-11 22:00N 48°59' W 126°17'510.9
2018-Jan-11 21:30N 48°56' W 126°09'611.0
2018-Jan-11 21:00N 48°54' W 126°02'611.2
2018-Jan-11 20:30N 48°51' W 125°54'611.0
2018-Jan-11 20:00N 48°48' W 125°47'2010.7
2018-Jan-11 18:10N 48°41' W 125°19'310.4
2018-Jan-11 17:55N 48°40' W 125°15'410.2
2018-Jan-11 17:30N 48°39' W 125°09'510.0
2018-Jan-11 17:00N 48°37' W 125°02'5 9.7
2018-Jan-11 16:30N 48°35' W 124°55'5 9.9
2018-Jan-11 16:00N 48°33' W 124°49'5 9.9
2018-Jan-11 15:30N 48°31' W 124°42'5 9.9
2018-Jan-11 15:00N 48°29' W 124°35'5 9.9
2018-Jan-11 14:30N 48°27' W 124°28'510.3
2018-Jan-11 14:00N 48°25' W 124°21'510.6
2018-Jan-11 13:30N 48°24' W 124°13'510.2
2018-Jan-11 13:00N 48°22' W 124°06'510.8
2018-Jan-11 12:30N 48°19' W 123°59'611.2
2018-Jan-11 11:57N 48°18' W 123°50'510.7
2018-Jan-11 11:30N 48°17' W 123°43'910.7
2018-Jan-11 10:39N 48°15' W 123°29'210.2
2018-Jan-11 10:28N 48°15' W 123°27'510.1
2018-Jan-11 09:59N 48°14' W 123°20'21 9.7
2018-Jan-11 07:52N 48°12' W 122°49'9 7.8
2018-Jan-11 06:46N 48°06' W 122°39'3 9.6
2018-Jan-11 06:29N 48°04' W 122°38'4 8.5
2018-Jan-11 05:58N 47°60' W 122°35'4 9.0
2018-Jan-11 05:30N 47°57' W 122°31'5 9.2
2018-Jan-11 05:00N 47°52' W 122°28'510.7
2018-Jan-11 04:30N 47°47' W 122°26'510.4
2018-Jan-11 04:00N 47°42' W 122°26'3 5.2
2018-Jan-11 03:30N 47°40' W 122°24'0 0.5
2018-Jan-11 03:00N 47°40' W 122°23'0 0.0
2018-Jan-11 02:30N 47°40' W 122°23'0 0.0
2018-Jan-11 02:00N 47°40' W 122°23'0 0.0
2018-Jan-11 01:30N 47°40' W 122°23'0 0.0
2018-Jan-11 01:00N 47°40' W 122°23'0 0.0
2018-Jan-11 00:30N 47°40' W 122°23'0 0.0
2018-Jan-11 00:00N 47°40' W 122°23'0 0.0
2018-Jan-10 23:30N 47°40' W 122°23'0 0.0
2018-Jan-10 23:00N 47°40' W 122°23'0 0.0
2018-Jan-10 22:30N 47°40' W 122°23'1 1.6
2018-Jan-10 22:00N 47°39' W 122°23'0 0.0
2018-Jan-10 21:30N 47°39' W 122°23'0 0.0
2018-Jan-10 21:00N 47°39' W 122°23'0 0.0
2018-Jan-10 20:30N 47°39' W 122°23'0 0.0
2018-Jan-10 20:00N 47°39' W 122°23'0 0.0
2018-Jan-10 19:30N 47°39' W 122°23'0 0.0
2018-Jan-10 19:00N 47°39' W 122°23'0 0.0
2018-Jan-10 18:30N 47°39' W 122°23'0 0.0
2018-Jan-10 18:00N 47°39' W 122°23'0 0.0
2018-Jan-10 17:30N 47°39' W 122°23'0 0.0
2018-Jan-10 17:00N 47°39' W 122°23'0 0.0
2018-Jan-10 16:30N 47°39' W 122°23'0 0.0
2018-Jan-10 16:00N 47°39' W 122°23'0 0.0
2018-Jan-10 15:30N 47°39' W 122°23'0 0.0
2018-Jan-10 15:00N 47°39' W 122°23'0 0.0
2018-Jan-10 14:30N 47°39' W 122°23'0 0.0
2018-Jan-10 14:00N 47°39' W 122°23'0 0.0
2018-Jan-10 13:30N 47°39' W 122°23'0 0.0
2018-Jan-10 13:00N 47°39' W 122°23'0 0.0
2018-Jan-10 12:30N 47°39' W 122°23'0 0.0
2018-Jan-10 12:00N 47°39' W 122°23'0 0.0
2018-Jan-10 11:30N 47°39' W 122°23'0 0.0
2018-Jan-10 11:00N 47°39' W 122°23'0 0.0
2018-Jan-10 10:30N 47°39' W 122°23'0 0.0
2018-Jan-10 10:00N 47°39' W 122°23'0 0.0
2018-Jan-10 09:30N 47°39' W 122°23'0 0.0
2018-Jan-10 09:00N 47°39' W 122°23'0 0.0
2018-Jan-10 08:30N 47°39' W 122°23'0 0.0
2018-Jan-10 08:00N 47°39' W 122°23'0 0.0
2018-Jan-10 07:30N 47°39' W 122°23'0 0.0
2018-Jan-10 07:00N 47°39' W 122°23'0 0.0
2018-Jan-10 06:30N 47°39' W 122°23'0 0.0
2018-Jan-10 06:00N 47°39' W 122°23'0 0.0
2018-Jan-10 05:30N 47°39' W 122°23'0 0.0
2018-Jan-10 05:00N 47°39' W 122°23'0 0.0
2018-Jan-10 04:30N 47°39' W 122°23'0 0.0
2018-Jan-10 04:00N 47°39' W 122°23'0 0.0
2018-Jan-10 03:30N 47°39' W 122°23'0 0.0
2018-Jan-10 03:00N 47°39' W 122°23'0 0.0
2018-Jan-10 02:30N 47°39' W 122°23'0 0.0
2018-Jan-10 02:00N 47°39' W 122°23'0 0.0
2018-Jan-10 01:30N 47°39' W 122°23'0 0.0
2018-Jan-10 01:00N 47°39' W 122°23'0 0.0
2018-Jan-10 00:30N 47°39' W 122°23'0 0.0
2018-Jan-10 00:00N 47°39' W 122°23'0 0.0
2018-Jan-09 23:30N 47°39' W 122°23'0 0.0
2018-Jan-09 23:00N 47°39' W 122°23'0 0.0
2018-Jan-09 22:30N 47°39' W 122°23'0 0.0
2018-Jan-09 22:00N 47°39' W 122°23'0 0.0
2018-Jan-09 21:30N 47°39' W 122°23'0 0.0
2018-Jan-09 21:00N 47°39' W 122°23'0 0.0
2018-Jan-09 20:30N 47°39' W 122°23'0 0.0
2018-Jan-09 20:00N 47°39' W 122°23'0 0.0
2018-Jan-09 19:30N 47°39' W 122°23'0 0.0
2018-Jan-09 19:00N 47°39' W 122°23'0 0.0
2018-Jan-09 18:30N 47°39' W 122°23'0 0.0
2018-Jan-09 18:00N 47°39' W 122°23'0 0.0
2018-Jan-09 17:30N 47°39' W 122°23'0 0.0
2018-Jan-09 17:00N 47°39' W 122°23'0 0.0
2018-Jan-09 16:30N 47°39' W 122°23'0 0.0
2018-Jan-09 16:00N 47°39' W 122°23'0 0.0
2018-Jan-09 15:30N 47°39' W 122°23'0 0.0
2018-Jan-09 15:00N 47°39' W 122°23'0 0.0
2018-Jan-09 14:30N 47°39' W 122°23'0 0.0
2018-Jan-09 14:00N 47°39' W 122°23'0 0.0
2018-Jan-09 13:30N 47°39' W 122°23'0 0.0
2018-Jan-09 13:00N 47°39' W 122°23'0 0.0
2018-Jan-09 12:30N 47°39' W 122°23'0 0.0
2018-Jan-09 12:00N 47°39' W 122°23'0 0.0
2018-Jan-09 11:30N 47°39' W 122°23'0 0.0
2018-Jan-09 11:00N 47°39' W 122°23'0 0.0
2018-Jan-09 10:30N 47°39' W 122°23'0 0.0
2018-Jan-09 10:00N 47°39' W 122°23'0 0.0
2018-Jan-09 09:30N 47°39' W 122°23'0 0.0
2018-Jan-09 09:00N 47°39' W 122°23'0 0.0
2018-Jan-09 08:30N 47°39' W 122°23'0 0.0
2018-Jan-09 08:00N 47°39' W 122°23'0 0.0
2018-Jan-09 07:30N 47°39' W 122°23'0 0.0
2018-Jan-09 07:00N 47°39' W 122°23'0 0.0
2018-Jan-09 06:30N 47°39' W 122°23'0 0.0
2018-Jan-09 06:00N 47°39' W 122°23'0 0.0
2018-Jan-09 05:30N 47°39' W 122°23'0 0.0
2018-Jan-09 05:00N 47°39' W 122°23'0 0.0
2018-Jan-09 04:30N 47°39' W 122°23'0 0.0
2018-Jan-09 04:00N 47°39' W 122°23'0 0.0
2018-Jan-09 03:30N 47°39' W 122°23'0 0.0
2018-Jan-09 03:00N 47°39' W 122°23'0 0.0
2018-Jan-09 02:30N 47°39' W 122°23'0 0.0
2018-Jan-09 02:00N 47°39' W 122°23'0 0.0
2018-Jan-09 01:30N 47°39' W 122°23'0 0.0
2018-Jan-09 01:00N 47°39' W 122°23'0 0.0
2018-Jan-09 00:30N 47°39' W 122°23'0 0.0
2018-Jan-09 00:00N 47°39' W 122°23'0 0.0
2018-Jan-08 23:30N 47°39' W 122°23'0 0.0
2018-Jan-08 23:00N 47°39' W 122°23'0 0.0
2018-Jan-08 22:30N 47°39' W 122°23'0 0.0
2018-Jan-08 22:00N 47°39' W 122°23'0 0.0
2018-Jan-08 21:30N 47°39' W 122°23'0 0.0
2018-Jan-08 21:00N 47°39' W 122°23'0 0.0
2018-Jan-08 20:30N 47°39' W 122°23'0 0.0
2018-Jan-08 20:00N 47°39' W 122°23'0 0.0
2018-Jan-08 19:30N 47°39' W 122°23'0 0.0
2018-Jan-08 19:00N 47°39' W 122°23'0 0.0
2018-Jan-08 18:30N 47°39' W 122°23'0 0.0
2018-Jan-08 18:00N 47°39' W 122°23'0 0.0
2018-Jan-08 17:30N 47°39' W 122°23'0 0.0
2018-Jan-08 17:00N 47°39' W 122°23'0 0.0
2018-Jan-08 16:30N 47°39' W 122°23'0 0.0
2018-Jan-08 16:00N 47°39' W 122°23'0 0.0
2018-Jan-08 15:30N 47°39' W 122°23'0 0.0
2018-Jan-08 15:00N 47°39' W 122°23'0 0.0
2018-Jan-08 14:30N 47°39' W 122°23'0 0.0
2018-Jan-08 14:00N 47°39' W 122°23'0 0.0
2018-Jan-08 13:30N 47°39' W 122°23'0 0.0
2018-Jan-08 13:00N 47°39' W 122°23'0 0.0
2018-Jan-08 12:30N 47°39' W 122°23'0 0.0
2018-Jan-08 12:00N 47°39' W 122°23'0 0.0
2018-Jan-08 11:30N 47°39' W 122°23'0 0.0
2018-Jan-08 11:00N 47°39' W 122°23'0 0.0
2018-Jan-08 10:30N 47°39' W 122°23'0 0.0
2018-Jan-08 10:00N 47°39' W 122°23'0 0.0
2018-Jan-08 09:30N 47°39' W 122°23'0 0.0
2018-Jan-08 09:00N 47°39' W 122°23'0 0.0
2018-Jan-08 08:30N 47°39' W 122°23'0 0.0
2018-Jan-08 08:00N 47°39' W 122°23'0 0.0
2018-Jan-08 07:30N 47°39' W 122°23'0 0.0
2018-Jan-08 07:00N 47°39' W 122°23'0 0.0
2018-Jan-08 06:30N 47°39' W 122°23'0 0.0
2018-Jan-08 06:00N 47°39' W 122°23'0 0.0
2018-Jan-08 05:30N 47°39' W 122°23'0 0.0
2018-Jan-08 05:00N 47°39' W 122°23'0 0.0
2018-Jan-08 04:30N 47°39' W 122°23'0 0.0
2018-Jan-08 04:00N 47°39' W 122°23'0 0.0
2018-Jan-08 03:30N 47°39' W 122°23'0 0.0
2018-Jan-08 03:00N 47°39' W 122°23'0 0.0
2018-Jan-08 02:30N 47°39' W 122°23'0 0.0
2018-Jan-08 02:00N 47°39' W 122°23'0 0.0
2018-Jan-08 01:30N 47°39' W 122°23'0 0.0
2018-Jan-08 01:00N 47°39' W 122°23'0 0.0
2018-Jan-08 00:30N 47°39' W 122°23'0 0.0
2018-Jan-08 00:00N 47°39' W 122°23'0 0.0
2018-Jan-07 23:30N 47°39' W 122°23'0 0.0
2018-Jan-07 23:00N 47°39' W 122°23'0 0.0
2018-Jan-07 22:30N 47°39' W 122°23'0 0.0
2018-Jan-07 22:00N 47°39' W 122°23'0 0.0
2018-Jan-07 21:30N 47°39' W 122°23'0 0.0
2018-Jan-07 21:00N 47°39' W 122°23'0 0.0
2018-Jan-07 20:30N 47°39' W 122°23'0 0.0
2018-Jan-07 20:00N 47°39' W 122°23'0 0.0
2018-Jan-07 19:30N 47°39' W 122°23'0 0.0
2018-Jan-07 19:00N 47°39' W 122°23'0 0.0
2018-Jan-07 18:30N 47°39' W 122°23'0 0.0
2018-Jan-07 18:00N 47°39' W 122°23'0 0.0
2018-Jan-07 17:30N 47°39' W 122°23'0 0.0
2018-Jan-07 17:00N 47°39' W 122°23'0 0.0
2018-Jan-07 16:30N 47°39' W 122°23'0 0.0
2018-Jan-07 16:00N 47°39' W 122°23'0 0.0
2018-Jan-07 15:30N 47°39' W 122°23'0 0.0
2018-Jan-07 15:00N 47°39' W 122°23'0 0.0
2018-Jan-07 14:30N 47°39' W 122°23'0 0.0
2018-Jan-07 14:00N 47°39' W 122°23'0 0.0
2018-Jan-07 13:30N 47°39' W 122°23'0 0.0
2018-Jan-07 13:00N 47°39' W 122°23'0 0.0
2018-Jan-07 12:30N 47°39' W 122°23'0 0.0
2018-Jan-07 12:00N 47°39' W 122°23'0 0.0
2018-Jan-07 11:30N 47°39' W 122°23'0 0.0
2018-Jan-07 11:00N 47°39' W 122°23'0 0.0
2018-Jan-07 10:30N 47°39' W 122°23'0 0.0
2018-Jan-07 10:00N 47°39' W 122°23'0 0.0
2018-Jan-07 09:30N 47°39' W 122°23'0 0.0
2018-Jan-07 09:00N 47°39' W 122°23'0 0.0
2018-Jan-07 08:30N 47°39' W 122°23'0 0.0
2018-Jan-07 08:00N 47°39' W 122°23'0 0.0
2018-Jan-07 07:30N 47°39' W 122°23'0 0.0
2018-Jan-07 07:00N 47°39' W 122°23'0 0.0
2018-Jan-07 06:30N 47°39' W 122°23'0 0.0
2018-Jan-07 06:00N 47°39' W 122°23'0 0.0
2018-Jan-07 05:30N 47°39' W 122°23'0 0.0
2018-Jan-07 05:00N 47°39' W 122°23'0 0.0
2018-Jan-07 04:30N 47°39' W 122°23'0 0.0
2018-Jan-07 04:00N 47°39' W 122°23'0 0.0
2018-Jan-07 03:30N 47°39' W 122°23'0 0.0
2018-Jan-07 03:00N 47°39' W 122°23'0 0.0
2018-Jan-07 02:30N 47°39' W 122°23'0 0.0
2018-Jan-07 02:00N 47°39' W 122°23'0 0.0
2018-Jan-07 01:30N 47°39' W 122°23'0 0.0
2018-Jan-07 00:30N 47°39' W 122°23'0 0.0
2018-Jan-07 00:00N 47°39' W 122°23'0 0.0
2018-Jan-06 23:30N 47°39' W 122°23'0 0.0
2018-Jan-06 23:00N 47°39' W 122°23'0 0.0
2018-Jan-06 22:30N 47°39' W 122°23'0 0.0
2018-Jan-06 22:00N 47°39' W 122°23'0 0.0
2018-Jan-06 21:30N 47°39' W 122°23'0 0.0
2018-Jan-06 21:00N 47°39' W 122°23'0 0.0
2018-Jan-06 20:30N 47°39' W 122°23'0 0.0
2018-Jan-06 20:00N 47°39' W 122°23'0 0.0
2018-Jan-06 19:30N 47°39' W 122°23'0 0.0
2018-Jan-06 19:00N 47°39' W 122°23'0 0.0
2018-Jan-06 18:30N 47°39' W 122°23'0 0.0
2018-Jan-06 18:00N 47°39' W 122°23'0 0.0
2018-Jan-06 17:30N 47°39' W 122°23'0 0.0
2018-Jan-06 17:00N 47°39' W 122°23'0 0.0
2018-Jan-06 16:30N 47°39' W 122°23'0 0.0
2018-Jan-06 16:00N 47°39' W 122°23'0 0.0
2018-Jan-06 15:30N 47°39' W 122°23'0 0.0
2018-Jan-06 15:00N 47°39' W 122°23'0 0.0
2018-Jan-06 14:30N 47°39' W 122°23'0 0.0
2018-Jan-06 14:00N 47°39' W 122°23'0 0.0
2018-Jan-06 13:30N 47°39' W 122°23'0 0.0
2018-Jan-06 13:00N 47°39' W 122°23'0 0.0
2018-Jan-06 12:30N 47°39' W 122°23'0 0.0
2018-Jan-06 12:00N 47°39' W 122°23'0 0.0
2018-Jan-06 11:30N 47°39' W 122°23'0 0.0
2018-Jan-06 11:00N 47°39' W 122°23'0 0.0
2018-Jan-06 10:30N 47°39' W 122°23'0 0.0
2018-Jan-06 10:00N 47°39' W 122°23'0 0.0
2018-Jan-06 09:30N 47°39' W 122°23'0 0.0
2018-Jan-06 09:00N 47°39' W 122°23'0 0.0
2018-Jan-06 08:30N 47°39' W 122°23'0 0.0
2018-Jan-06 08:00N 47°39' W 122°23'0 0.0
2018-Jan-06 07:30N 47°39' W 122°23'0 0.0
2018-Jan-06 07:00N 47°39' W 122°23'0 0.0
2018-Jan-06 06:30N 47°39' W 122°23'0 0.0
2018-Jan-06 06:00N 47°39' W 122°23'0 0.0
2018-Jan-06 05:30N 47°39' W 122°23'0 0.0
2018-Jan-06 05:00N 47°39' W 122°23'0 0.0
2018-Jan-06 04:30N 47°39' W 122°23'0 0.0
2018-Jan-06 04:00N 47°39' W 122°23'0 0.0
2018-Jan-06 03:30N 47°39' W 122°23'0 0.0
2018-Jan-06 03:00N 47°39' W 122°23'0 0.0
2018-Jan-06 02:30N 47°39' W 122°23'0 0.0
2018-Jan-06 02:00N 47°39' W 122°23'0 0.0
2018-Jan-06 01:30N 47°39' W 122°23'0 0.0
2018-Jan-06 01:00N 47°39' W 122°23'0 0.0
2018-Jan-06 00:30N 47°39' W 122°23'0 0.0
2018-Jan-06 00:00N 47°39' W 122°23'0 0.0
2018-Jan-05 23:30N 47°39' W 122°23'0 0.0
2018-Jan-05 23:00N 47°39' W 122°23'0 0.0
2018-Jan-05 22:30N 47°39' W 122°23'0 0.0
2018-Jan-05 22:00N 47°39' W 122°23'0 0.0
2018-Jan-05 21:30N 47°39' W 122°23'0 0.0
2018-Jan-05 21:00N 47°39' W 122°23'0 0.0
2018-Jan-05 20:30N 47°39' W 122°23'0 0.0
2018-Jan-05 20:00N 47°39' W 122°23'0 0.0
2018-Jan-05 19:30N 47°39' W 122°23'0 0.0
2018-Jan-05 19:00N 47°39' W 122°23'0 0.0
2018-Jan-05 18:30N 47°39' W 122°23'0 0.0
2018-Jan-05 18:00N 47°39' W 122°23'0 0.0
2018-Jan-05 17:30N 47°39' W 122°23'0 0.0
2018-Jan-05 17:00N 47°39' W 122°23'0 0.0
2018-Jan-05 16:30N 47°39' W 122°23'0 0.0
2018-Jan-05 16:00N 47°39' W 122°23'0 0.0
2018-Jan-05 15:30N 47°39' W 122°23'0 0.0
2018-Jan-05 15:00N 47°39' W 122°23'0 0.0
2018-Jan-05 14:30N 47°39' W 122°23'0 0.0
2018-Jan-05 14:00N 47°39' W 122°23'0 0.0
2018-Jan-05 13:30N 47°39' W 122°23'0 0.0
2018-Jan-05 13:00N 47°39' W 122°23'0 0.0
2018-Jan-05 12:30N 47°39' W 122°23'0 0.0
2018-Jan-05 12:00N 47°39' W 122°23'0 0.0
2018-Jan-05 11:30N 47°39' W 122°23'0 0.0
2018-Jan-05 11:00N 47°39' W 122°23'0 0.0
2018-Jan-05 10:30N 47°39' W 122°23'0 0.0
2018-Jan-05 10:00N 47°39' W 122°23'0 0.0
2018-Jan-05 09:30N 47°39' W 122°23'0 0.0
2018-Jan-05 09:00N 47°39' W 122°23'0 0.0
2018-Jan-05 08:30N 47°39' W 122°23'0 0.0
2018-Jan-05 08:00N 47°39' W 122°23'0 0.0
2018-Jan-05 07:30N 47°39' W 122°23'0 0.0
2018-Jan-05 07:00N 47°39' W 122°23'0 0.0
2018-Jan-05 06:30N 47°39' W 122°23'0 0.0
2018-Jan-05 06:00N 47°39' W 122°23'0 0.0
2018-Jan-05 05:30N 47°39' W 122°23'0 0.0
2018-Jan-05 05:00N 47°39' W 122°23'0 0.0
2018-Jan-05 04:30N 47°39' W 122°23'0 0.0
2018-Jan-05 04:00N 47°39' W 122°23'0 0.0
2018-Jan-05 03:30N 47°39' W 122°23'0 0.0
2018-Jan-05 03:00N 47°39' W 122°23'0 0.0
2018-Jan-05 02:30N 47°39' W 122°23'0 0.0
2018-Jan-05 02:00N 47°39' W 122°23'0 0.0
2018-Jan-05 01:30N 47°39' W 122°23'0 0.0
2018-Jan-05 01:00N 47°39' W 122°23'0 0.0
2018-Jan-05 00:30N 47°39' W 122°23'0 0.0
2018-Jan-05 00:00N 47°39' W 122°23'0 0.0
2018-Jan-04 23:30N 47°39' W 122°23'0 0.0
2018-Jan-04 23:00N 47°39' W 122°23'0 0.0
2018-Jan-04 22:30N 47°39' W 122°23'0 0.0
2018-Jan-04 22:00N 47°39' W 122°23'0 0.0
2018-Jan-04 21:30N 47°39' W 122°23'0 0.0
2018-Jan-04 21:00N 47°39' W 122°23'0 0.0
2018-Jan-04 20:30N 47°39' W 122°23'0 0.0
2018-Jan-04 20:00N 47°39' W 122°23'0 0.0
2018-Jan-04 19:30N 47°39' W 122°23'0 0.0
2018-Jan-04 19:00N 47°39' W 122°23'0 0.0
2018-Jan-04 18:30N 47°39' W 122°23'0 0.0
2018-Jan-04 18:00N 47°39' W 122°23'0 0.0
2018-Jan-04 17:30N 47°39' W 122°23'0 0.0
2018-Jan-04 17:00N 47°39' W 122°23'0 0.0
2018-Jan-04 16:30N 47°39' W 122°23'0 0.0
2018-Jan-04 16:00N 47°39' W 122°23'0 0.0
2018-Jan-04 15:30N 47°39' W 122°23'0 0.0
2018-Jan-04 15:00N 47°39' W 122°23'0 0.0
2018-Jan-04 14:30N 47°39' W 122°23'0 0.0
2018-Jan-04 14:00N 47°39' W 122°23'0 0.0
2018-Jan-04 13:30N 47°39' W 122°23'0 0.0
2018-Jan-04 13:00N 47°39' W 122°23'0 0.0
2018-Jan-04 12:30N 47°39' W 122°23'0 0.0
2018-Jan-04 12:00N 47°39' W 122°23'0 0.0
2018-Jan-04 11:30N 47°39' W 122°23'0 0.0
2018-Jan-04 11:00N 47°39' W 122°23'0 0.0
2018-Jan-04 10:30N 47°39' W 122°23'0 0.0
2018-Jan-04 10:00N 47°39' W 122°23'0 0.0
2018-Jan-04 09:30N 47°39' W 122°23'0 0.0
2018-Jan-04 09:00N 47°39' W 122°23'0 0.0
2018-Jan-04 08:30N 47°39' W 122°23'0 0.0
2018-Jan-04 08:00N 47°39' W 122°23'0 0.0
2018-Jan-04 07:30N 47°39' W 122°23'0 0.0
2018-Jan-04 07:00N 47°39' W 122°23'0 0.0
2018-Jan-04 06:30N 47°39' W 122°23'0 0.0
2018-Jan-04 06:00N 47°39' W 122°23'0 0.0
2018-Jan-04 05:30N 47°39' W 122°23'0 0.0
2018-Jan-04 05:00N 47°39' W 122°23'0 0.0
2018-Jan-04 04:30N 47°39' W 122°23'0 0.0
2018-Jan-04 04:00N 47°39' W 122°23'0 0.0
2018-Jan-04 03:30N 47°39' W 122°23'0 0.0
2018-Jan-04 03:00N 47°39' W 122°23'0 0.0
2018-Jan-04 02:30N 47°39' W 122°23'0 0.0
2018-Jan-04 02:00N 47°39' W 122°23'0 0.0
2018-Jan-04 01:30N 47°39' W 122°23'0 0.0
2018-Jan-04 01:00N 47°39' W 122°23'0 0.0
2018-Jan-04 00:30N 47°39' W 122°23'0 0.0
2018-Jan-04 00:00N 47°39' W 122°23'0 0.0
2018-Jan-03 23:30N 47°39' W 122°23'0 0.0
2018-Jan-03 23:00N 47°39' W 122°23'0 0.0
2018-Jan-03 22:30N 47°39' W 122°23'0 0.0
2018-Jan-03 22:00N 47°39' W 122°23'0 0.0
2018-Jan-03 21:30N 47°39' W 122°23'0 0.0
2018-Jan-03 21:00N 47°39' W 122°23'0 0.0
2018-Jan-03 20:30N 47°39' W 122°23'0 0.0
2018-Jan-03 20:00N 47°39' W 122°23'0 0.0
2018-Jan-03 19:30N 47°39' W 122°23'0 0.0
2018-Jan-03 19:00N 47°39' W 122°23'0 0.0
2018-Jan-03 18:30N 47°39' W 122°23'0 0.0
2018-Jan-03 18:00N 47°39' W 122°23'0 0.0
2018-Jan-03 17:30N 47°39' W 122°23'0 0.0
2018-Jan-03 17:00N 47°39' W 122°23'0 0.0
2018-Jan-03 16:30N 47°39' W 122°23'0 0.0
2018-Jan-03 16:00N 47°39' W 122°23'0 0.0
2018-Jan-03 15:30N 47°39' W 122°23'0 0.0
2018-Jan-03 15:00N 47°39' W 122°23'0 0.0
2018-Jan-03 14:30N 47°39' W 122°23'0 0.0
2018-Jan-03 14:00N 47°39' W 122°23'0 0.0
2018-Jan-03 13:30N 47°39' W 122°23'0 0.0
2018-Jan-03 13:00N 47°39' W 122°23'0 0.0
2018-Jan-03 12:30N 47°39' W 122°23'0 0.0
2018-Jan-03 12:00N 47°39' W 122°23'0 0.0
2018-Jan-03 11:30N 47°39' W 122°23'0 0.0
2018-Jan-03 11:00N 47°39' W 122°23'0 0.0
2018-Jan-03 10:30N 47°39' W 122°23'0 0.0
2018-Jan-03 10:00N 47°39' W 122°23'0 0.0
2018-Jan-03 09:30N 47°39' W 122°23'0 0.0
2018-Jan-03 09:00N 47°39' W 122°23'0 0.0
2018-Jan-03 08:30N 47°39' W 122°23'0 0.0
2018-Jan-03 08:00N 47°39' W 122°23'0 0.0
2018-Jan-03 07:30N 47°39' W 122°23'0 0.0
2018-Jan-03 07:00N 47°39' W 122°23'0 0.0
2018-Jan-03 06:30N 47°39' W 122°23'0 0.0
2018-Jan-03 06:00N 47°39' W 122°23'0 0.0
2018-Jan-03 05:30N 47°39' W 122°23'0 0.0
2018-Jan-03 05:00N 47°39' W 122°23'0 0.0
2018-Jan-03 04:30N 47°39' W 122°23'0 0.0
2018-Jan-03 04:00N 47°39' W 122°23'0 0.0
2018-Jan-03 03:30N 47°39' W 122°23'0 0.0
2018-Jan-03 03:00N 47°39' W 122°23'0 0.0
2018-Jan-03 02:30N 47°39' W 122°23'0 0.0
2018-Jan-03 02:00N 47°39' W 122°23'0 0.0
2018-Jan-03 01:30N 47°39' W 122°23'0 0.0
2018-Jan-03 01:00N 47°39' W 122°23'0 0.0
2018-Jan-03 00:30N 47°39' W 122°23'0 0.0
2018-Jan-03 00:00N 47°39' W 122°23'0 0.0
2018-Jan-02 23:30N 47°39' W 122°23'0 0.0
2018-Jan-02 23:00N 47°39' W 122°23'0 0.0
2018-Jan-02 22:30N 47°39' W 122°23'0 0.0
2018-Jan-02 22:00N 47°39' W 122°23'0 0.0
2018-Jan-02 21:30N 47°39' W 122°23'0 0.0
2018-Jan-02 21:00N 47°39' W 122°23'0 0.0
2018-Jan-02 20:30N 47°39' W 122°23'0 0.0
2018-Jan-02 20:00N 47°39' W 122°23'0 0.0
2018-Jan-02 19:30N 47°39' W 122°23'0 0.0
2018-Jan-02 19:00N 47°39' W 122°23'0 0.0
2018-Jan-02 18:30N 47°39' W 122°23'0 0.0
2018-Jan-02 18:00N 47°39' W 122°23'0 0.0
2018-Jan-02 17:30N 47°39' W 122°23'0 0.0
2018-Jan-02 17:00N 47°39' W 122°23'0 0.0
2018-Jan-02 16:30N 47°39' W 122°23'0 0.0
2018-Jan-02 16:00N 47°39' W 122°23'0 0.0
2018-Jan-02 15:30N 47°39' W 122°23'0 0.0
2018-Jan-02 15:00N 47°39' W 122°23'0 0.0
2018-Jan-02 14:30N 47°39' W 122°23'0 0.0
2018-Jan-02 14:00N 47°39' W 122°23'0 0.0
2018-Jan-02 13:30N 47°39' W 122°23'0 0.0
2018-Jan-02 13:00N 47°39' W 122°23'0 0.0
2018-Jan-02 12:30N 47°39' W 122°23'0 0.0
2018-Jan-02 12:00N 47°39' W 122°23'0 0.0
2018-Jan-02 11:30N 47°39' W 122°23'0 0.0
2018-Jan-02 11:00N 47°39' W 122°23'0 0.0
2018-Jan-02 10:30N 47°39' W 122°23'0 0.0
2018-Jan-02 10:00N 47°39' W 122°23'0 0.0
2018-Jan-02 09:31N 47°39' W 122°23'0 0.0
2018-Jan-02 08:30N 47°39' W 122°23'0 0.0
2018-Jan-02 08:00N 47°39' W 122°23'0 0.0
2018-Jan-02 07:30N 47°39' W 122°23'0 0.0
2018-Jan-02 07:00N 47°39' W 122°23'0 0.0
2018-Jan-02 06:30N 47°39' W 122°23'0 0.0
2018-Jan-02 06:00N 47°39' W 122°23'0 0.0
2018-Jan-02 05:30N 47°39' W 122°23'0 0.0
2018-Jan-02 04:30N 47°39' W 122°23'0 0.0
2018-Jan-02 04:00N 47°39' W 122°23'0 0.0
2018-Jan-02 03:30N 47°39' W 122°23'0 0.0
2018-Jan-02 03:00N 47°39' W 122°23'0 0.0
2018-Jan-02 02:30N 47°39' W 122°23'0 0.0
2018-Jan-02 02:00N 47°39' W 122°23'0 0.0
2018-Jan-02 01:30N 47°39' W 122°23'  
Track history (hours):
 
Tides and Currents Weather Stations Pressure Air Temp Water Temp Dewpoint Dewpoint Depression Visibility Wind Speed Wind Dir Waves Ship Positions

Western Dawn

Owner: OLSEN, THOR A, SEATTLE, WA. More information available from US FCC via Universal Licensing System and Coast Guard Vessel Documentation Center.

Last reported at 2018-Jan-12 01:26 UTC. Time now 2018-Feb-20 19:35 UTC.
Position N 49°15' W 127°07'.
Warning: this ship's position is 39 days out of date.

Length 30 m; draft 4 m.

Type: Fishing. MMSI: 366264360.

Date/timePositionNaut miles runAvg speedWind from/ knotsBaromVisibWave heightAir tempDewpointWater temp
2018-Jan-12 01:26N 49°15' W 127°07'510.9
2018-Jan-12 00:58N 49°13' W 126°60'510.7
2018-Jan-12 00:30N 49°11' W 126°53'510.7
2018-Jan-12 00:00N 49°08' W 126°46'510.6
2018-Jan-11 23:30N 49°06' W 126°38'510.6
2018-Jan-11 23:00N 49°04' W 126°31'510.6
2018-Jan-11 22:30N 49°02' W 126°24'511.2
2018-Jan-11 22:00N 48°59' W 126°17'510.9
2018-Jan-11 21:30N 48°56' W 126°09'611.0
2018-Jan-11 21:00N 48°54' W 126°02'611.2
2018-Jan-11 20:30N 48°51' W 125°54'611.0
2018-Jan-11 20:00N 48°48' W 125°47'2010.7
2018-Jan-11 18:10N 48°41' W 125°19'310.4
2018-Jan-11 17:55N 48°40' W 125°15'410.2
2018-Jan-11 17:30N 48°39' W 125°09'510.0
2018-Jan-11 17:00N 48°37' W 125°02'5 9.7
2018-Jan-11 16:30N 48°35' W 124°55'5 9.9
2018-Jan-11 16:00N 48°33' W 124°49'5 9.9
2018-Jan-11 15:30N 48°31' W 124°42'5 9.9
2018-Jan-11 15:00N 48°29' W 124°35'5 9.9
2018-Jan-11 14:30N 48°27' W 124°28'510.3
2018-Jan-11 14:00N 48°25' W 124°21'510.6
2018-Jan-11 13:30N 48°24' W 124°13'510.2
2018-Jan-11 13:00N 48°22' W 124°06'510.8
2018-Jan-11 12:30N 48°19' W 123°59'611.2
2018-Jan-11 11:57N 48°18' W 123°50'510.7
2018-Jan-11 11:30N 48°17' W 123°43'910.7
2018-Jan-11 10:39N 48°15' W 123°29'210.2
2018-Jan-11 10:28N 48°15' W 123°27'510.1
2018-Jan-11 09:59N 48°14' W 123°20'21 9.7
2018-Jan-11 07:52N 48°12' W 122°49'9 7.8
2018-Jan-11 06:46N 48°06' W 122°39'3 9.6
2018-Jan-11 06:29N 48°04' W 122°38'4 8.5
2018-Jan-11 05:58N 47°60' W 122°35'4 9.0
2018-Jan-11 05:30N 47°57' W 122°31'5 9.2
2018-Jan-11 05:00N 47°52' W 122°28'510.7
2018-Jan-11 04:30N 47°47' W 122°26'510.4
2018-Jan-11 04:00N 47°42' W 122°26'3 5.2
2018-Jan-11 03:30N 47°40' W 122°24'0 0.5
2018-Jan-11 03:00N 47°40' W 122°23'0 0.0
2018-Jan-11 02:30N 47°40' W 122°23'0 0.0
2018-Jan-11 02:00N 47°40' W 122°23'0 0.0
2018-Jan-11 01:30N 47°40' W 122°23'0 0.0
2018-Jan-11 01:00N 47°40' W 122°23'0 0.0
2018-Jan-11 00:30N 47°40' W 122°23'0 0.0
2018-Jan-11 00:00N 47°40' W 122°23'0 0.0
2018-Jan-10 23:30N 47°40' W 122°23'0 0.0
2018-Jan-10 23:00N 47°40' W 122°23'0 0.0
2018-Jan-10 22:30N 47°40' W 122°23'1 1.6
2018-Jan-10 22:00N 47°39' W 122°23'0 0.0
2018-Jan-10 21:30N 47°39' W 122°23'0 0.0
2018-Jan-10 21:00N 47°39' W 122°23'0 0.0
2018-Jan-10 20:30N 47°39' W 122°23'0 0.0
2018-Jan-10 20:00N 47°39' W 122°23'0 0.0
2018-Jan-10 19:30N 47°39' W 122°23'0 0.0
2018-Jan-10 19:00N 47°39' W 122°23'0 0.0
2018-Jan-10 18:30N 47°39' W 122°23'0 0.0
2018-Jan-10 18:00N 47°39' W 122°23'0 0.0
2018-Jan-10 17:30N 47°39' W 122°23'0 0.0
2018-Jan-10 17:00N 47°39' W 122°23'0 0.0
2018-Jan-10 16:30N 47°39' W 122°23'0 0.0
2018-Jan-10 16:00N 47°39' W 122°23'0 0.0
2018-Jan-10 15:30N 47°39' W 122°23'0 0.0
2018-Jan-10 15:00N 47°39' W 122°23'0 0.0
2018-Jan-10 14:30N 47°39' W 122°23'0 0.0
2018-Jan-10 14:00N 47°39' W 122°23'0 0.0
2018-Jan-10 13:30N 47°39' W 122°23'0 0.0
2018-Jan-10 13:00N 47°39' W 122°23'0 0.0
2018-Jan-10 12:30N 47°39' W 122°23'0 0.0
2018-Jan-10 12:00N 47°39' W 122°23'0 0.0
2018-Jan-10 11:30N 47°39' W 122°23'0 0.0
2018-Jan-10 11:00N 47°39' W 122°23'0 0.0
2018-Jan-10 10:30N 47°39' W 122°23'0 0.0
2018-Jan-10 10:00N 47°39' W 122°23'0 0.0
2018-Jan-10 09:30N 47°39' W 122°23'0 0.0
2018-Jan-10 09:00N 47°39' W 122°23'0 0.0
2018-Jan-10 08:30N 47°39' W 122°23'0 0.0
2018-Jan-10 08:00N 47°39' W 122°23'0 0.0
2018-Jan-10 07:30N 47°39' W 122°23'0 0.0
2018-Jan-10 07:00N 47°39' W 122°23'0 0.0
2018-Jan-10 06:30N 47°39' W 122°23'0 0.0
2018-Jan-10 06:00N 47°39' W 122°23'0 0.0
2018-Jan-10 05:30N 47°39' W 122°23'0 0.0
2018-Jan-10 05:00N 47°39' W 122°23'0 0.0
2018-Jan-10 04:30N 47°39' W 122°23'0 0.0
2018-Jan-10 04:00N 47°39' W 122°23'0 0.0
2018-Jan-10 03:30N 47°39' W 122°23'0 0.0
2018-Jan-10 03:00N 47°39' W 122°23'0 0.0
2018-Jan-10 02:30N 47°39' W 122°23'0 0.0
2018-Jan-10 02:00N 47°39' W 122°23'0 0.0
2018-Jan-10 01:30N 47°39' W 122°23'0 0.0
2018-Jan-10 01:00N 47°39' W 122°23'0 0.0
2018-Jan-10 00:30N 47°39' W 122°23'0 0.0
2018-Jan-10 00:00N 47°39' W 122°23'0 0.0
2018-Jan-09 23:30N 47°39' W 122°23'0 0.0
2018-Jan-09 23:00N 47°39' W 122°23'0 0.0
2018-Jan-09 22:30N 47°39' W 122°23'0 0.0
2018-Jan-09 22:00N 47°39' W 122°23'0 0.0
2018-Jan-09 21:30N 47°39' W 122°23'0 0.0
2018-Jan-09 21:00N 47°39' W 122°23'0 0.0
2018-Jan-09 20:30N 47°39' W 122°23'0 0.0
2018-Jan-09 20:00N 47°39' W 122°23'0 0.0
2018-Jan-09 19:30N 47°39' W 122°23'0 0.0
2018-Jan-09 19:00N 47°39' W 122°23'0 0.0
2018-Jan-09 18:30N 47°39' W 122°23'0 0.0
2018-Jan-09 18:00N 47°39' W 122°23'0 0.0
2018-Jan-09 17:30N 47°39' W 122°23'0 0.0
2018-Jan-09 17:00N 47°39' W 122°23'0 0.0
2018-Jan-09 16:30N 47°39' W 122°23'0 0.0
2018-Jan-09 16:00N 47°39' W 122°23'0 0.0
2018-Jan-09 15:30N 47°39' W 122°23'0 0.0
2018-Jan-09 15:00N 47°39' W 122°23'0 0.0
2018-Jan-09 14:30N 47°39' W 122°23'0 0.0
2018-Jan-09 14:00N 47°39' W 122°23'0 0.0
2018-Jan-09 13:30N 47°39' W 122°23'0 0.0
2018-Jan-09 13:00N 47°39' W 122°23'0 0.0
2018-Jan-09 12:30N 47°39' W 122°23'0 0.0
2018-Jan-09 12:00N 47°39' W 122°23'0 0.0
2018-Jan-09 11:30N 47°39' W 122°23'0 0.0
2018-Jan-09 11:00N 47°39' W 122°23'0 0.0
2018-Jan-09 10:30N 47°39' W 122°23'0 0.0
2018-Jan-09 10:00N 47°39' W 122°23'0 0.0
2018-Jan-09 09:30N 47°39' W 122°23'0 0.0
2018-Jan-09 09:00N 47°39' W 122°23'0 0.0
2018-Jan-09 08:30N 47°39' W 122°23'0 0.0
2018-Jan-09 08:00N 47°39' W 122°23'0 0.0
2018-Jan-09 07:30N 47°39' W 122°23'0 0.0
2018-Jan-09 07:00N 47°39' W 122°23'0 0.0
2018-Jan-09 06:30N 47°39' W 122°23'0 0.0
2018-Jan-09 06:00N 47°39' W 122°23'0 0.0
2018-Jan-09 05:30N 47°39' W 122°23'0 0.0
2018-Jan-09 05:00N 47°39' W 122°23'0 0.0
2018-Jan-09 04:30N 47°39' W 122°23'0 0.0
2018-Jan-09 04:00N 47°39' W 122°23'0 0.0
2018-Jan-09 03:30N 47°39' W 122°23'0 0.0
2018-Jan-09 03:00N 47°39' W 122°23'0 0.0
2018-Jan-09 02:30N 47°39' W 122°23'0 0.0
2018-Jan-09 02:00N 47°39' W 122°23'0 0.0
2018-Jan-09 01:30N 47°39' W 122°23'0 0.0
2018-Jan-09 01:00N 47°39' W 122°23'0 0.0
2018-Jan-09 00:30N 47°39' W 122°23'0 0.0
2018-Jan-09 00:00N 47°39' W 122°23'0 0.0
2018-Jan-08 23:30N 47°39' W 122°23'0 0.0
2018-Jan-08 23:00N 47°39' W 122°23'0 0.0
2018-Jan-08 22:30N 47°39' W 122°23'0 0.0
2018-Jan-08 22:00N 47°39' W 122°23'0 0.0
2018-Jan-08 21:30N 47°39' W 122°23'0 0.0
2018-Jan-08 21:00N 47°39' W 122°23'0 0.0
2018-Jan-08 20:30N 47°39' W 122°23'0 0.0
2018-Jan-08 20:00N 47°39' W 122°23'0 0.0
2018-Jan-08 19:30N 47°39' W 122°23'0 0.0
2018-Jan-08 19:00N 47°39' W 122°23'0 0.0
2018-Jan-08 18:30N 47°39' W 122°23'0 0.0
2018-Jan-08 18:00N 47°39' W 122°23'0 0.0
2018-Jan-08 17:30N 47°39' W 122°23'0 0.0
2018-Jan-08 17:00N 47°39' W 122°23'0 0.0
2018-Jan-08 16:30N 47°39' W 122°23'0 0.0
2018-Jan-08 16:00N 47°39' W 122°23'0 0.0
2018-Jan-08 15:30N 47°39' W 122°23'0 0.0
2018-Jan-08 15:00N 47°39' W 122°23'0 0.0
2018-Jan-08 14:30N 47°39' W 122°23'0 0.0
2018-Jan-08 14:00N 47°39' W 122°23'0 0.0
2018-Jan-08 13:30N 47°39' W 122°23'0 0.0
2018-Jan-08 13:00N 47°39' W 122°23'0 0.0
2018-Jan-08 12:30N 47°39' W 122°23'0 0.0
2018-Jan-08 12:00N 47°39' W 122°23'0 0.0
2018-Jan-08 11:30N 47°39' W 122°23'0 0.0
2018-Jan-08 11:00N 47°39' W 122°23'0 0.0
2018-Jan-08 10:30N 47°39' W 122°23'0 0.0
2018-Jan-08 10:00N 47°39' W 122°23'0 0.0
2018-Jan-08 09:30N 47°39' W 122°23'0 0.0
2018-Jan-08 09:00N 47°39' W 122°23'0 0.0
2018-Jan-08 08:30N 47°39' W 122°23'0 0.0
2018-Jan-08 08:00N 47°39' W 122°23'0 0.0
2018-Jan-08 07:30N 47°39' W 122°23'0 0.0
2018-Jan-08 07:00N 47°39' W 122°23'0 0.0
2018-Jan-08 06:30N 47°39' W 122°23'0 0.0
2018-Jan-08 06:00N 47°39' W 122°23'0 0.0
2018-Jan-08 05:30N 47°39' W 122°23'0 0.0
2018-Jan-08 05:00N 47°39' W 122°23'0 0.0
2018-Jan-08 04:30N 47°39' W 122°23'0 0.0
2018-Jan-08 04:00N 47°39' W 122°23'0 0.0
2018-Jan-08 03:30N 47°39' W 122°23'0 0.0
2018-Jan-08 03:00N 47°39' W 122°23'0 0.0
2018-Jan-08 02:30N 47°39' W 122°23'0 0.0
2018-Jan-08 02:00N 47°39' W 122°23'0 0.0
2018-Jan-08 01:30N 47°39' W 122°23'0 0.0
2018-Jan-08 01:00N 47°39' W 122°23'0 0.0
2018-Jan-08 00:30N 47°39' W 122°23'0 0.0
2018-Jan-08 00:00N 47°39' W 122°23'0 0.0
2018-Jan-07 23:30N 47°39' W 122°23'0 0.0
2018-Jan-07 23:00N 47°39' W 122°23'0 0.0
2018-Jan-07 22:30N 47°39' W 122°23'0 0.0
2018-Jan-07 22:00N 47°39' W 122°23'0 0.0
2018-Jan-07 21:30N 47°39' W 122°23'0 0.0
2018-Jan-07 21:00N 47°39' W 122°23'0 0.0
2018-Jan-07 20:30N 47°39' W 122°23'0 0.0
2018-Jan-07 20:00N 47°39' W 122°23'0 0.0
2018-Jan-07 19:30N 47°39' W 122°23'0 0.0
2018-Jan-07 19:00N 47°39' W 122°23'0 0.0
2018-Jan-07 18:30N 47°39' W 122°23'0 0.0
2018-Jan-07 18:00N 47°39' W 122°23'0 0.0
2018-Jan-07 17:30N 47°39' W 122°23'0 0.0
2018-Jan-07 17:00N 47°39' W 122°23'0 0.0
2018-Jan-07 16:30N 47°39' W 122°23'0 0.0
2018-Jan-07 16:00N 47°39' W 122°23'0 0.0
2018-Jan-07 15:30N 47°39' W 122°23'0 0.0
2018-Jan-07 15:00N 47°39' W 122°23'0 0.0
2018-Jan-07 14:30N 47°39' W 122°23'0 0.0
2018-Jan-07 14:00N 47°39' W 122°23'0 0.0
2018-Jan-07 13:30N 47°39' W 122°23'0 0.0
2018-Jan-07 13:00N 47°39' W 122°23'0 0.0
2018-Jan-07 12:30N 47°39' W 122°23'0 0.0
2018-Jan-07 12:00N 47°39' W 122°23'0 0.0
2018-Jan-07 11:30N 47°39' W 122°23'0 0.0
2018-Jan-07 11:00N 47°39' W 122°23'0 0.0
2018-Jan-07 10:30N 47°39' W 122°23'0 0.0
2018-Jan-07 10:00N 47°39' W 122°23'0 0.0
2018-Jan-07 09:30N 47°39' W 122°23'0 0.0
2018-Jan-07 09:00N 47°39' W 122°23'0 0.0
2018-Jan-07 08:30N 47°39' W 122°23'0 0.0
2018-Jan-07 08:00N 47°39' W 122°23'0 0.0
2018-Jan-07 07:30N 47°39' W 122°23'0 0.0
2018-Jan-07 07:00N 47°39' W 122°23'0 0.0
2018-Jan-07 06:30N 47°39' W 122°23'0 0.0
2018-Jan-07 06:00N 47°39' W 122°23'0 0.0
2018-Jan-07 05:30N 47°39' W 122°23'0 0.0
2018-Jan-07 05:00N 47°39' W 122°23'0 0.0
2018-Jan-07 04:30N 47°39' W 122°23'0 0.0
2018-Jan-07 04:00N 47°39' W 122°23'0 0.0
2018-Jan-07 03:30N 47°39' W 122°23'0 0.0
2018-Jan-07 03:00N 47°39' W 122°23'0 0.0
2018-Jan-07 02:30N 47°39' W 122°23'0 0.0
2018-Jan-07 02:00N 47°39' W 122°23'0 0.0
2018-Jan-07 01:30N 47°39' W 122°23'0 0.0
2018-Jan-07 00:30N 47°39' W 122°23'0 0.0
2018-Jan-07 00:00N 47°39' W 122°23'0 0.0
2018-Jan-06 23:30N 47°39' W 122°23'0 0.0
2018-Jan-06 23:00N 47°39' W 122°23'0 0.0
2018-Jan-06 22:30N 47°39' W 122°23'0 0.0
2018-Jan-06 22:00N 47°39' W 122°23'0 0.0
2018-Jan-06 21:30N 47°39' W 122°23'0 0.0
2018-Jan-06 21:00N 47°39' W 122°23'0 0.0
2018-Jan-06 20:30N 47°39' W 122°23'0 0.0
2018-Jan-06 20:00N 47°39' W 122°23'0 0.0
2018-Jan-06 19:30N 47°39' W 122°23'0 0.0
2018-Jan-06 19:00N 47°39' W 122°23'0 0.0
2018-Jan-06 18:30N 47°39' W 122°23'0 0.0
2018-Jan-06 18:00N 47°39' W 122°23'0 0.0
2018-Jan-06 17:30N 47°39' W 122°23'0 0.0
2018-Jan-06 17:00N 47°39' W 122°23'0 0.0
2018-Jan-06 16:30N 47°39' W 122°23'0 0.0
2018-Jan-06 16:00N 47°39' W 122°23'0 0.0
2018-Jan-06 15:30N 47°39' W 122°23'0 0.0
2018-Jan-06 15:00N 47°39' W 122°23'0 0.0
2018-Jan-06 14:30N 47°39' W 122°23'0 0.0
2018-Jan-06 14:00N 47°39' W 122°23'0 0.0
2018-Jan-06 13:30N 47°39' W 122°23'0 0.0
2018-Jan-06 13:00N 47°39' W 122°23'0 0.0
2018-Jan-06 12:30N 47°39' W 122°23'0 0.0
2018-Jan-06 12:00N 47°39' W 122°23'0 0.0
2018-Jan-06 11:30N 47°39' W 122°23'0 0.0
2018-Jan-06 11:00N 47°39' W 122°23'0 0.0
2018-Jan-06 10:30N 47°39' W 122°23'0 0.0
2018-Jan-06 10:00N 47°39' W 122°23'0 0.0
2018-Jan-06 09:30N 47°39' W 122°23'0 0.0
2018-Jan-06 09:00N 47°39' W 122°23'0 0.0
2018-Jan-06 08:30N 47°39' W 122°23'0 0.0
2018-Jan-06 08:00N 47°39' W 122°23'0 0.0
2018-Jan-06 07:30N 47°39' W 122°23'0 0.0
2018-Jan-06 07:00N 47°39' W 122°23'0 0.0
2018-Jan-06 06:30N 47°39' W 122°23'0 0.0
2018-Jan-06 06:00N 47°39' W 122°23'0 0.0
2018-Jan-06 05:30N 47°39' W 122°23'0 0.0
2018-Jan-06 05:00N 47°39' W 122°23'0 0.0
2018-Jan-06 04:30N 47°39' W 122°23'0 0.0
2018-Jan-06 04:00N 47°39' W 122°23'0 0.0
2018-Jan-06 03:30N 47°39' W 122°23'0 0.0
2018-Jan-06 03:00N 47°39' W 122°23'0 0.0
2018-Jan-06 02:30N 47°39' W 122°23'0 0.0
2018-Jan-06 02:00N 47°39' W 122°23'0 0.0
2018-Jan-06 01:30N 47°39' W 122°23'0 0.0
2018-Jan-06 01:00N 47°39' W 122°23'0 0.0
2018-Jan-06 00:30N 47°39' W 122°23'0 0.0
2018-Jan-06 00:00N 47°39' W 122°23'0 0.0
2018-Jan-05 23:30N 47°39' W 122°23'0 0.0
2018-Jan-05 23:00N 47°39' W 122°23'0 0.0
2018-Jan-05 22:30N 47°39' W 122°23'0 0.0
2018-Jan-05 22:00N 47°39' W 122°23'0 0.0
2018-Jan-05 21:30N 47°39' W 122°23'0 0.0
2018-Jan-05 21:00N 47°39' W 122°23'0 0.0
2018-Jan-05 20:30N 47°39' W 122°23'0 0.0
2018-Jan-05 20:00N 47°39' W 122°23'0 0.0
2018-Jan-05 19:30N 47°39' W 122°23'0 0.0
2018-Jan-05 19:00N 47°39' W 122°23'0 0.0
2018-Jan-05 18:30N 47°39' W 122°23'0 0.0
2018-Jan-05 18:00N 47°39' W 122°23'0 0.0
2018-Jan-05 17:30N 47°39' W 122°23'0 0.0
2018-Jan-05 17:00N 47°39' W 122°23'0 0.0
2018-Jan-05 16:30N 47°39' W 122°23'0 0.0
2018-Jan-05 16:00N 47°39' W 122°23'0 0.0
2018-Jan-05 15:30N 47°39' W 122°23'0 0.0
2018-Jan-05 15:00N 47°39' W 122°23'0 0.0
2018-Jan-05 14:30N 47°39' W 122°23'0 0.0
2018-Jan-05 14:00N 47°39' W 122°23'0 0.0
2018-Jan-05 13:30N 47°39' W 122°23'0 0.0
2018-Jan-05 13:00N 47°39' W 122°23'0 0.0
2018-Jan-05 12:30N 47°39' W 122°23'0 0.0
2018-Jan-05 12:00N 47°39' W 122°23'0 0.0
2018-Jan-05 11:30N 47°39' W 122°23'0 0.0
2018-Jan-05 11:00N 47°39' W 122°23'0 0.0
2018-Jan-05 10:30N 47°39' W 122°23'0 0.0
2018-Jan-05 10:00N 47°39' W 122°23'0 0.0
2018-Jan-05 09:30N 47°39' W 122°23'0 0.0
2018-Jan-05 09:00N 47°39' W 122°23'0 0.0
2018-Jan-05 08:30N 47°39' W 122°23'0 0.0
2018-Jan-05 08:00N 47°39' W 122°23'0 0.0
2018-Jan-05 07:30N 47°39' W 122°23'0 0.0
2018-Jan-05 07:00N 47°39' W 122°23'0 0.0
2018-Jan-05 06:30N 47°39' W 122°23'0 0.0
2018-Jan-05 06:00N 47°39' W 122°23'0 0.0
2018-Jan-05 05:30N 47°39' W 122°23'0 0.0
2018-Jan-05 05:00N 47°39' W 122°23'0 0.0
2018-Jan-05 04:30N 47°39' W 122°23'0 0.0
2018-Jan-05 04:00N 47°39' W 122°23'0 0.0
2018-Jan-05 03:30N 47°39' W 122°23'0 0.0
2018-Jan-05 03:00N 47°39' W 122°23'0 0.0
2018-Jan-05 02:30N 47°39' W 122°23'0 0.0
2018-Jan-05 02:00N 47°39' W 122°23'0 0.0
2018-Jan-05 01:30N 47°39' W 122°23'0 0.0
2018-Jan-05 01:00N 47°39' W 122°23'0 0.0
2018-Jan-05 00:30N 47°39' W 122°23'0 0.0
2018-Jan-05 00:00N 47°39' W 122°23'0 0.0
2018-Jan-04 23:30N 47°39' W 122°23'0 0.0
2018-Jan-04 23:00N 47°39' W 122°23'0 0.0
2018-Jan-04 22:30N 47°39' W 122°23'0 0.0
2018-Jan-04 22:00N 47°39' W 122°23'0 0.0
2018-Jan-04 21:30N 47°39' W 122°23'0 0.0
2018-Jan-04 21:00N 47°39' W 122°23'0 0.0
2018-Jan-04 20:30N 47°39' W 122°23'0 0.0
2018-Jan-04 20:00N 47°39' W 122°23'0 0.0
2018-Jan-04 19:30N 47°39' W 122°23'0 0.0
2018-Jan-04 19:00N 47°39' W 122°23'0 0.0
2018-Jan-04 18:30N 47°39' W 122°23'0 0.0
2018-Jan-04 18:00N 47°39' W 122°23'0 0.0
2018-Jan-04 17:30N 47°39' W 122°23'0 0.0
2018-Jan-04 17:00N 47°39' W 122°23'0 0.0
2018-Jan-04 16:30N 47°39' W 122°23'0 0.0
2018-Jan-04 16:00N 47°39' W 122°23'0 0.0
2018-Jan-04 15:30N 47°39' W 122°23'0 0.0
2018-Jan-04 15:00N 47°39' W 122°23'0 0.0
2018-Jan-04 14:30N 47°39' W 122°23'0 0.0
2018-Jan-04 14:00N 47°39' W 122°23'0 0.0
2018-Jan-04 13:30N 47°39' W 122°23'0 0.0
2018-Jan-04 13:00N 47°39' W 122°23'0 0.0
2018-Jan-04 12:30N 47°39' W 122°23'0 0.0
2018-Jan-04 12:00N 47°39' W 122°23'0 0.0
2018-Jan-04 11:30N 47°39' W 122°23'0 0.0
2018-Jan-04 11:00N 47°39' W 122°23'0 0.0
2018-Jan-04 10:30N 47°39' W 122°23'0 0.0
2018-Jan-04 10:00N 47°39' W 122°23'0 0.0
2018-Jan-04 09:30N 47°39' W 122°23'0 0.0
2018-Jan-04 09:00N 47°39' W 122°23'0 0.0
2018-Jan-04 08:30N 47°39' W 122°23'0 0.0
2018-Jan-04 08:00N 47°39' W 122°23'0 0.0
2018-Jan-04 07:30N 47°39' W 122°23'0 0.0
2018-Jan-04 07:00N 47°39' W 122°23'0 0.0
2018-Jan-04 06:30N 47°39' W 122°23'0 0.0
2018-Jan-04 06:00N 47°39' W 122°23'0 0.0
2018-Jan-04 05:30N 47°39' W 122°23'0 0.0
2018-Jan-04 05:00N 47°39' W 122°23'0 0.0
2018-Jan-04 04:30N 47°39' W 122°23'0 0.0
2018-Jan-04 04:00N 47°39' W 122°23'0 0.0
2018-Jan-04 03:30N 47°39' W 122°23'0 0.0
2018-Jan-04 03:00N 47°39' W 122°23'0 0.0
2018-Jan-04 02:30N 47°39' W 122°23'0 0.0
2018-Jan-04 02:00N 47°39' W 122°23'0 0.0
2018-Jan-04 01:30N 47°39' W 122°23'0 0.0
2018-Jan-04 01:00N 47°39' W 122°23'0 0.0
2018-Jan-04 00:30N 47°39' W 122°23'0 0.0
2018-Jan-04 00:00N 47°39' W 122°23'0 0.0
2018-Jan-03 23:30N 47°39' W 122°23'0 0.0
2018-Jan-03 23:00N 47°39' W 122°23'0 0.0
2018-Jan-03 22:30N 47°39' W 122°23'0 0.0
2018-Jan-03 22:00N 47°39' W 122°23'0 0.0
2018-Jan-03 21:30N 47°39' W 122°23'0 0.0
2018-Jan-03 21:00N 47°39' W 122°23'0 0.0
2018-Jan-03 20:30N 47°39' W 122°23'0 0.0
2018-Jan-03 20:00N 47°39' W 122°23'0 0.0
2018-Jan-03 19:30N 47°39' W 122°23'0 0.0
2018-Jan-03 19:00N 47°39' W 122°23'0 0.0
2018-Jan-03 18:30N 47°39' W 122°23'0 0.0
2018-Jan-03 18:00N 47°39' W 122°23'0 0.0
2018-Jan-03 17:30N 47°39' W 122°23'0 0.0
2018-Jan-03 17:00N 47°39' W 122°23'0 0.0
2018-Jan-03 16:30N 47°39' W 122°23'0 0.0
2018-Jan-03 16:00N 47°39' W 122°23'0 0.0
2018-Jan-03 15:30N 47°39' W 122°23'0 0.0
2018-Jan-03 15:00N 47°39' W 122°23'0 0.0
2018-Jan-03 14:30N 47°39' W 122°23'0 0.0
2018-Jan-03 14:00N 47°39' W 122°23'0 0.0
2018-Jan-03 13:30N 47°39' W 122°23'0 0.0
2018-Jan-03 13:00N 47°39' W 122°23'0 0.0
2018-Jan-03 12:30N 47°39' W 122°23'0 0.0
2018-Jan-03 12:00N 47°39' W 122°23'0 0.0
2018-Jan-03 11:30N 47°39' W 122°23'0 0.0
2018-Jan-03 11:00N 47°39' W 122°23'0 0.0
2018-Jan-03 10:30N 47°39' W 122°23'0 0.0
2018-Jan-03 10:00N 47°39' W 122°23'0 0.0
2018-Jan-03 09:30N 47°39' W 122°23'0 0.0
2018-Jan-03 09:00N 47°39' W 122°23'0 0.0
2018-Jan-03 08:30N 47°39' W 122°23'0 0.0
2018-Jan-03 08:00N 47°39' W 122°23'0 0.0
2018-Jan-03 07:30N 47°39' W 122°23'0 0.0
2018-Jan-03 07:00N 47°39' W 122°23'0 0.0
2018-Jan-03 06:30N 47°39' W 122°23'0 0.0
2018-Jan-03 06:00N 47°39' W 122°23'0 0.0
2018-Jan-03 05:30N 47°39' W 122°23'0 0.0
2018-Jan-03 05:00N 47°39' W 122°23'0 0.0
2018-Jan-03 04:30N 47°39' W 122°23'0 0.0
2018-Jan-03 04:00N 47°39' W 122°23'0 0.0
2018-Jan-03 03:30N 47°39' W 122°23'0 0.0
2018-Jan-03 03:00N 47°39' W 122°23'0 0.0
2018-Jan-03 02:30N 47°39' W 122°23'0 0.0
2018-Jan-03 02:00N 47°39' W 122°23'0 0.0
2018-Jan-03 01:30N 47°39' W 122°23'0 0.0
2018-Jan-03 01:00N 47°39' W 122°23'0 0.0
2018-Jan-03 00:30N 47°39' W 122°23'0 0.0
2018-Jan-03 00:00N 47°39' W 122°23'0 0.0
2018-Jan-02 23:30N 47°39' W 122°23'0 0.0
2018-Jan-02 23:00N 47°39' W 122°23'0 0.0
2018-Jan-02 22:30N 47°39' W 122°23'0 0.0
2018-Jan-02 22:00N 47°39' W 122°23'0 0.0
2018-Jan-02 21:30N 47°39' W 122°23'0 0.0
2018-Jan-02 21:00N 47°39' W 122°23'0 0.0
2018-Jan-02 20:30N 47°39' W 122°23'0 0.0
2018-Jan-02 20:00N 47°39' W 122°23'0 0.0
2018-Jan-02 19:30N 47°39' W 122°23'0 0.0
2018-Jan-02 19:00N 47°39' W 122°23'0 0.0
2018-Jan-02 18:30N 47°39' W 122°23'0 0.0
2018-Jan-02 18:00N 47°39' W 122°23'0 0.0
2018-Jan-02 17:30N 47°39' W 122°23'0 0.0
2018-Jan-02 17:00N 47°39' W 122°23'0 0.0
2018-Jan-02 16:30N 47°39' W 122°23'0 0.0
2018-Jan-02 16:00N 47°39' W 122°23'0 0.0
2018-Jan-02 15:30N 47°39' W 122°23'0 0.0
2018-Jan-02 15:00N 47°39' W 122°23'0 0.0
2018-Jan-02 14:30N 47°39' W 122°23'0 0.0
2018-Jan-02 14:00N 47°39' W 122°23'0 0.0
2018-Jan-02 13:30N 47°39' W 122°23'0 0.0
2018-Jan-02 13:00N 47°39' W 122°23'0 0.0
2018-Jan-02 12:30N 47°39' W 122°23'0 0.0
2018-Jan-02 12:00N 47°39' W 122°23'0 0.0
2018-Jan-02 11:30N 47°39' W 122°23'0 0.0
2018-Jan-02 11:00N 47°39' W 122°23'0 0.0
2018-Jan-02 10:30N 47°39' W 122°23'0 0.0
2018-Jan-02 10:00N 47°39' W 122°23'0 0.0
2018-Jan-02 09:31N 47°39' W 122°23'0 0.0
2018-Jan-02 08:30N 47°39' W 122°23'0 0.0
2018-Jan-02 08:00N 47°39' W 122°23'0 0.0
2018-Jan-02 07:30N 47°39' W 122°23'0 0.0
2018-Jan-02 07:00N 47°39' W 122°23'0 0.0
2018-Jan-02 06:30N 47°39' W 122°23'0 0.0
2018-Jan-02 06:00N 47°39' W 122°23'0 0.0
2018-Jan-02 05:30N 47°39' W 122°23'0 0.0
2018-Jan-02 04:30N 47°39' W 122°23'0 0.0
2018-Jan-02 04:00N 47°39' W 122°23'0 0.0
2018-Jan-02 03:30N 47°39' W 122°23'0 0.0
2018-Jan-02 03:00N 47°39' W 122°23'0 0.0
2018-Jan-02 02:30N 47°39' W 122°23'0 0.0
2018-Jan-02 02:00N 47°39' W 122°23'0 0.0
2018-Jan-02 01:30N 47°39' W 122°23'  

Dump ship's entire track history